sensor_id;sensor_type;location;lat;lon;timestamp;P1;durP1;ratioP1;P2;durP2;ratioP2
23360;SDS011;11852;50.082;18.554;2023-09-12T00:00:06;18.3;;;11.6;;
23360;SDS011;11852;50.082;18.554;2023-09-12T00:01:13;23.4;;;12.0;;
23360;SDS011;11852;50.082;18.554;2023-09-12T00:02:20;18.0;;;11.8;;
23360;SDS011;11852;50.082;18.554;2023-09-12T00:03:27;21.1;;;11.9;;
23360;SDS011;11852;50.082;18.554;2023-09-12T00:04:32;21.1;;;11.9;;
23360;SDS011;11852;50.082;18.554;2023-09-12T00:05:36;21.2;;;12.2;;
23360;SDS011;11852;50.082;18.554;2023-09-12T00:06:42;18.6;;;11.9;;
23360;SDS011;11852;50.082;18.554;2023-09-12T00:07:48;20.3;;;12.6;;
23360;SDS011;11852;50.082;18.554;2023-09-12T00:08:55;21.0;;;12.0;;
23360;SDS011;11852;50.082;18.554;2023-09-12T00:10:00;21.6;;;11.9;;
23360;SDS011;11852;50.082;18.554;2023-09-12T00:11:07;23.3;;;13.2;;
23360;SDS011;11852;50.082;18.554;2023-09-12T00:12:14;19.9;;;11.7;;
23360;SDS011;11852;50.082;18.554;2023-09-12T00:13:17;17.4;;;12.2;;
23360;SDS011;11852;50.082;18.554;2023-09-12T00:14:23;18.7;;;11.6;;
23360;SDS011;11852;50.082;18.554;2023-09-12T00:15:29;18.0;;;11.8;;
23360;SDS011;11852;50.082;18.554;2023-09-12T00:16:35;18.5;;;11.6;;
23360;SDS011;11852;50.082;18.554;2023-09-12T00:17:40;19.6;;;11.7;;
23360;SDS011;11852;50.082;18.554;2023-09-12T00:18:45;20.5;;;12.1;;
23360;SDS011;11852;50.082;18.554;2023-09-12T00:19:51;18.6;;;11.0;;
23360;SDS011;11852;50.082;18.554;2023-09-12T00:20:58;19.3;;;12.4;;
23360;SDS011;11852;50.082;18.554;2023-09-12T00:22:03;20.1;;;12.6;;
23360;SDS011;11852;50.082;18.554;2023-09-12T00:23:08;19.0;;;11.7;;
23360;SDS011;11852;50.082;18.554;2023-09-12T00:24:13;18.7;;;12.0;;
23360;SDS011;11852;50.082;18.554;2023-09-12T00:25:20;18.7;;;11.8;;
23360;SDS011;11852;50.082;18.554;2023-09-12T00:26:26;20.6;;;11.8;;
23360;SDS011;11852;50.082;18.554;2023-09-12T00:27:31;21.9;;;12.0;;
23360;SDS011;11852;50.082;18.554;2023-09-12T00:28:37;20.5;;;12.3;;
23360;SDS011;11852;50.082;18.554;2023-09-12T00:29:43;19.4;;;12.0;;
23360;SDS011;11852;50.082;18.554;2023-09-12T00:30:48;20.0;;;11.7;;
23360;SDS011;11852;50.082;18.554;2023-09-12T00:31:55;24.5;;;12.6;;
23360;SDS011;11852;50.082;18.554;2023-09-12T00:33:01;19.7;;;12.4;;
23360;SDS011;11852;50.082;18.554;2023-09-12T00:34:07;22.9;;;12.1;;
23360;SDS011;11852;50.082;18.554;2023-09-12T00:35:12;19.1;;;11.0;;
23360;SDS011;11852;50.082;18.554;2023-09-12T00:36:18;20.8;;;11.4;;
23360;SDS011;11852;50.082;18.554;2023-09-12T00:37:25;20.6;;;10.8;;
23360;SDS011;11852;50.082;18.554;2023-09-12T00:38:31;20.4;;;12.1;;
23360;SDS011;11852;50.082;18.554;2023-09-12T00:39:36;19.2;;;11.8;;
23360;SDS011;11852;50.082;18.554;2023-09-12T00:40:42;17.3;;;12.8;;
23360;SDS011;11852;50.082;18.554;2023-09-12T00:41:47;19.5;;;12.2;;
23360;SDS011;11852;50.082;18.554;2023-09-12T00:42:54;17.7;;;11.0;;
23360;SDS011;11852;50.082;18.554;2023-09-12T00:43:59;20.3;;;11.7;;
23360;SDS011;11852;50.082;18.554;2023-09-12T00:45:05;20.3;;;12.2;;
23360;SDS011;11852;50.082;18.554;2023-09-12T00:46:10;19.1;;;12.2;;
23360;SDS011;11852;50.082;18.554;2023-09-12T00:47:17;17.6;;;12.2;;
23360;SDS011;11852;50.082;18.554;2023-09-12T00:48:22;16.2;;;11.1;;
23360;SDS011;11852;50.082;18.554;2023-09-12T00:49:28;20.9;;;12.6;;
23360;SDS011;11852;50.082;18.554;2023-09-12T00:50:36;17.5;;;12.0;;
23360;SDS011;11852;50.082;18.554;2023-09-12T00:51:41;17.6;;;12.1;;
23360;SDS011;11852;50.082;18.554;2023-09-12T00:52:47;17.3;;;12.2;;
23360;SDS011;11852;50.082;18.554;2023-09-12T00:53:53;18.1;;;12.0;;
23360;SDS011;11852;50.082;18.554;2023-09-12T00:54:59;18.2;;;11.2;;
23360;SDS011;11852;50.082;18.554;2023-09-12T00:56:05;19.2;;;10.8;;
23360;SDS011;11852;50.082;18.554;2023-09-12T00:57:10;18.3;;;11.3;;
23360;SDS011;11852;50.082;18.554;2023-09-12T00:58:16;18.3;;;11.4;;
23360;SDS011;11852;50.082;18.554;2023-09-12T00:59:24;18.6;;;11.5;;
23360;SDS011;11852;50.082;18.554;2023-09-12T01:00:32;16.3;;;10.7;;
23360;SDS011;11852;50.082;18.554;2023-09-12T01:01:39;15.6;;;11.4;;
23360;SDS011;11852;50.082;18.554;2023-09-12T01:02:45;15.2;;;11.1;;
23360;SDS011;11852;50.082;18.554;2023-09-12T01:03:50;15.2;;;11.5;;
23360;SDS011;11852;50.082;18.554;2023-09-12T01:04:57;15.8;;;11.2;;
23360;SDS011;11852;50.082;18.554;2023-09-12T01:06:02;18.4;;;11.8;;
23360;SDS011;11852;50.082;18.554;2023-09-12T01:07:07;17.4;;;11.4;;
23360;SDS011;11852;50.082;18.554;2023-09-12T01:08:13;18.5;;;11.6;;
23360;SDS011;11852;50.082;18.554;2023-09-12T01:09:20;16.2;;;11.4;;
23360;SDS011;11852;50.082;18.554;2023-09-12T01:10:26;18.8;;;11.4;;
23360;SDS011;11852;50.082;18.554;2023-09-12T01:11:31;18.1;;;11.9;;
23360;SDS011;11852;50.082;18.554;2023-09-12T01:12:37;17.8;;;12.2;;
23360;SDS011;11852;50.082;18.554;2023-09-12T01:13:42;18.3;;;11.7;;
23360;SDS011;11852;50.082;18.554;2023-09-12T01:14:48;16.2;;;11.7;;
23360;SDS011;11852;50.082;18.554;2023-09-12T01:15:54;15.5;;;11.3;;
23360;SDS011;11852;50.082;18.554;2023-09-12T01:17:00;18.5;;;11.7;;
23360;SDS011;11852;50.082;18.554;2023-09-12T01:18:05;16.1;;;11.5;;
23360;SDS011;11852;50.082;18.554;2023-09-12T01:19:12;17.6;;;11.7;;
23360;SDS011;11852;50.082;18.554;2023-09-12T01:25:08;18.7;;;12.6;;
23360;SDS011;11852;50.082;18.554;2023-09-12T01:28:28;19.8;;;12.7;;
23360;SDS011;11852;50.082;18.554;2023-09-12T01:29:33;16.8;;;11.9;;
23360;SDS011;11852;50.082;18.554;2023-09-12T01:30:39;19.6;;;12.7;;
23360;SDS011;11852;50.082;18.554;2023-09-12T01:31:46;21.0;;;12.5;;
23360;SDS011;11852;50.082;18.554;2023-09-12T01:32:52;17.5;;;11.9;;
23360;SDS011;11852;50.082;18.554;2023-09-12T01:33:57;17.8;;;12.3;;
23360;SDS011;11852;50.082;18.554;2023-09-12T01:35:03;20.5;;;13.1;;
23360;SDS011;11852;50.082;18.554;2023-09-12T01:36:10;20.4;;;12.8;;
23360;SDS011;11852;50.082;18.554;2023-09-12T01:37:17;19.2;;;13.5;;
23360;SDS011;11852;50.082;18.554;2023-09-12T01:38:23;17.6;;;12.1;;
23360;SDS011;11852;50.082;18.554;2023-09-12T01:39:28;19.3;;;13.6;;
23360;SDS011;11852;50.082;18.554;2023-09-12T01:40:41;18.9;;;12.5;;
23360;SDS011;11852;50.082;18.554;2023-09-12T01:41:46;20.1;;;12.8;;
23360;SDS011;11852;50.082;18.554;2023-09-12T01:42:52;20.8;;;12.7;;
23360;SDS011;11852;50.082;18.554;2023-09-12T01:43:58;20.1;;;13.6;;
23360;SDS011;11852;50.082;18.554;2023-09-12T01:45:05;20.8;;;13.0;;
23360;SDS011;11852;50.082;18.554;2023-09-12T01:46:10;18.6;;;12.6;;
23360;SDS011;11852;50.082;18.554;2023-09-12T01:47:16;18.9;;;12.9;;
23360;SDS011;11852;50.082;18.554;2023-09-12T01:48:23;18.1;;;13.0;;
23360;SDS011;11852;50.082;18.554;2023-09-12T01:49:27;19.0;;;12.4;;
23360;SDS011;11852;50.082;18.554;2023-09-12T01:50:33;19.8;;;13.0;;
23360;SDS011;11852;50.082;18.554;2023-09-12T01:51:41;19.9;;;12.7;;
23360;SDS011;11852;50.082;18.554;2023-09-12T01:52:46;18.7;;;12.1;;
23360;SDS011;11852;50.082;18.554;2023-09-12T01:53:52;21.8;;;12.8;;
23360;SDS011;11852;50.082;18.554;2023-09-12T01:54:58;19.1;;;12.4;;
23360;SDS011;11852;50.082;18.554;2023-09-12T01:56:07;19.1;;;12.5;;
23360;SDS011;11852;50.082;18.554;2023-09-12T01:57:14;20.8;;;12.8;;
23360;SDS011;11852;50.082;18.554;2023-09-12T01:58:19;18.4;;;11.7;;
23360;SDS011;11852;50.082;18.554;2023-09-12T01:59:26;19.1;;;13.3;;
23360;SDS011;11852;50.082;18.554;2023-09-12T02:00:33;20.4;;;12.6;;
23360;SDS011;11852;50.082;18.554;2023-09-12T02:01:38;19.5;;;12.6;;
23360;SDS011;11852;50.082;18.554;2023-09-12T02:02:45;18.6;;;12.2;;
23360;SDS011;11852;50.082;18.554;2023-09-12T02:03:53;19.6;;;12.7;;
23360;SDS011;11852;50.082;18.554;2023-09-12T02:06:10;19.6;;;11.9;;
23360;SDS011;11852;50.082;18.554;2023-09-12T02:07:16;19.8;;;13.0;;
23360;SDS011;11852;50.082;18.554;2023-09-12T02:08:22;18.9;;;12.5;;
23360;SDS011;11852;50.082;18.554;2023-09-12T02:09:27;20.4;;;13.1;;
23360;SDS011;11852;50.082;18.554;2023-09-12T02:10:32;19.5;;;12.4;;
23360;SDS011;11852;50.082;18.554;2023-09-12T02:11:37;19.5;;;12.0;;
23360;SDS011;11852;50.082;18.554;2023-09-12T02:12:43;20.0;;;12.7;;
23360;SDS011;11852;50.082;18.554;2023-09-12T02:13:49;26.7;;;12.4;;
23360;SDS011;11852;50.082;18.554;2023-09-12T02:14:57;17.3;;;11.6;;
23360;SDS011;11852;50.082;18.554;2023-09-12T02:16:05;21.2;;;12.2;;
23360;SDS011;11852;50.082;18.554;2023-09-12T02:17:11;18.8;;;12.2;;
23360;SDS011;11852;50.082;18.554;2023-09-12T02:18:16;24.1;;;12.8;;
23360;SDS011;11852;50.082;18.554;2023-09-12T02:19:21;20.1;;;12.6;;
23360;SDS011;11852;50.082;18.554;2023-09-12T02:20:26;22.5;;;12.9;;
23360;SDS011;11852;50.082;18.554;2023-09-12T02:21:32;22.7;;;12.4;;
23360;SDS011;11852;50.082;18.554;2023-09-12T02:22:38;20.2;;;12.2;;
23360;SDS011;11852;50.082;18.554;2023-09-12T02:23:44;22.4;;;12.6;;
23360;SDS011;11852;50.082;18.554;2023-09-12T02:24:50;20.5;;;12.2;;
23360;SDS011;11852;50.082;18.554;2023-09-12T02:25:56;25.6;;;12.5;;
23360;SDS011;11852;50.082;18.554;2023-09-12T02:27:02;21.6;;;12.8;;
23360;SDS011;11852;50.082;18.554;2023-09-12T02:28:08;22.0;;;12.4;;
23360;SDS011;11852;50.082;18.554;2023-09-12T02:29:14;21.5;;;12.5;;
23360;SDS011;11852;50.082;18.554;2023-09-12T02:30:19;21.0;;;12.2;;
23360;SDS011;11852;50.082;18.554;2023-09-12T02:31:28;20.0;;;12.3;;
23360;SDS011;11852;50.082;18.554;2023-09-12T02:32:35;20.2;;;11.3;;
23360;SDS011;11852;50.082;18.554;2023-09-12T02:33:41;20.1;;;12.7;;
23360;SDS011;11852;50.082;18.554;2023-09-12T02:34:46;21.2;;;11.9;;
23360;SDS011;11852;50.082;18.554;2023-09-12T02:35:52;18.8;;;11.1;;
23360;SDS011;11852;50.082;18.554;2023-09-12T02:37:00;22.1;;;12.2;;
23360;SDS011;11852;50.082;18.554;2023-09-12T02:38:06;20.6;;;12.2;;
23360;SDS011;11852;50.082;18.554;2023-09-12T02:39:11;20.0;;;10.8;;
23360;SDS011;11852;50.082;18.554;2023-09-12T02:40:17;18.2;;;10.8;;
23360;SDS011;11852;50.082;18.554;2023-09-12T02:41:24;17.7;;;11.2;;
23360;SDS011;11852;50.082;18.554;2023-09-12T02:42:30;16.5;;;10.8;;
23360;SDS011;11852;50.082;18.554;2023-09-12T02:43:37;19.6;;;11.5;;
23360;SDS011;11852;50.082;18.554;2023-09-12T02:44:42;20.0;;;11.4;;
23360;SDS011;11852;50.082;18.554;2023-09-12T02:45:51;16.9;;;11.0;;
23360;SDS011;11852;50.082;18.554;2023-09-12T02:46:57;16.8;;;11.2;;
23360;SDS011;11852;50.082;18.554;2023-09-12T02:48:03;19.4;;;10.6;;
23360;SDS011;11852;50.082;18.554;2023-09-12T02:49:11;18.7;;;11.3;;
23360;SDS011;11852;50.082;18.554;2023-09-12T02:50:16;15.4;;;10.6;;
23360;SDS011;11852;50.082;18.554;2023-09-12T02:51:21;19.2;;;10.7;;
23360;SDS011;11852;50.082;18.554;2023-09-12T02:52:26;18.6;;;10.9;;
23360;SDS011;11852;50.082;18.554;2023-09-12T02:53:32;20.3;;;10.8;;
23360;SDS011;11852;50.082;18.554;2023-09-12T02:54:37;16.1;;;11.5;;
23360;SDS011;11852;50.082;18.554;2023-09-12T02:55:45;19.0;;;10.8;;
23360;SDS011;11852;50.082;18.554;2023-09-12T02:56:50;17.6;;;11.2;;
23360;SDS011;11852;50.082;18.554;2023-09-12T02:57:56;18.0;;;10.8;;
23360;SDS011;11852;50.082;18.554;2023-09-12T02:59:01;15.8;;;11.1;;
23360;SDS011;11852;50.082;18.554;2023-09-12T03:00:09;16.8;;;10.8;;
23360;SDS011;11852;50.082;18.554;2023-09-12T03:01:19;16.7;;;10.4;;
23360;SDS011;11852;50.082;18.554;2023-09-12T03:02:25;15.6;;;10.5;;
23360;SDS011;11852;50.082;18.554;2023-09-12T03:03:32;16.9;;;9.7;;
23360;SDS011;11852;50.082;18.554;2023-09-12T03:04:38;14.8;;;10.2;;
23360;SDS011;11852;50.082;18.554;2023-09-12T03:05:44;15.7;;;9.5;;
23360;SDS011;11852;50.082;18.554;2023-09-12T03:06:50;15.3;;;10.1;;
23360;SDS011;11852;50.082;18.554;2023-09-12T03:07:57;14.7;;;9.8;;
23360;SDS011;11852;50.082;18.554;2023-09-12T03:09:03;16.2;;;10.0;;
23360;SDS011;11852;50.082;18.554;2023-09-12T03:10:10;13.4;;;9.7;;
23360;SDS011;11852;50.082;18.554;2023-09-12T03:11:16;17.2;;;11.2;;
23360;SDS011;11852;50.082;18.554;2023-09-12T03:12:24;16.2;;;11.1;;
23360;SDS011;11852;50.082;18.554;2023-09-12T03:13:32;17.4;;;11.1;;
23360;SDS011;11852;50.082;18.554;2023-09-12T03:14:37;18.8;;;11.7;;
23360;SDS011;11852;50.082;18.554;2023-09-12T03:15:42;17.0;;;11.1;;
23360;SDS011;11852;50.082;18.554;2023-09-12T03:16:47;18.9;;;12.2;;
23360;SDS011;11852;50.082;18.554;2023-09-12T03:17:59;18.2;;;11.8;;
23360;SDS011;11852;50.082;18.554;2023-09-12T03:19:05;17.6;;;11.6;;
23360;SDS011;11852;50.082;18.554;2023-09-12T03:20:13;18.8;;;12.4;;
23360;SDS011;11852;50.082;18.554;2023-09-12T03:21:18;20.3;;;12.5;;
23360;SDS011;11852;50.082;18.554;2023-09-12T03:22:24;19.2;;;11.3;;
23360;SDS011;11852;50.082;18.554;2023-09-12T03:23:29;17.2;;;11.4;;
23360;SDS011;11852;50.082;18.554;2023-09-12T03:24:35;18.2;;;11.0;;
23360;SDS011;11852;50.082;18.554;2023-09-12T03:25:40;17.7;;;10.3;;
23360;SDS011;11852;50.082;18.554;2023-09-12T03:26:48;16.9;;;10.0;;
23360;SDS011;11852;50.082;18.554;2023-09-12T03:27:55;15.4;;;10.4;;
23360;SDS011;11852;50.082;18.554;2023-09-12T03:29:00;17.2;;;10.4;;
23360;SDS011;11852;50.082;18.554;2023-09-12T03:30:05;16.4;;;10.0;;
23360;SDS011;11852;50.082;18.554;2023-09-12T03:31:12;15.8;;;9.8;;
23360;SDS011;11852;50.082;18.554;2023-09-12T03:32:17;16.1;;;9.5;;
23360;SDS011;11852;50.082;18.554;2023-09-12T03:33:24;15.3;;;10.2;;
23360;SDS011;11852;50.082;18.554;2023-09-12T03:34:30;14.5;;;9.7;;
23360;SDS011;11852;50.082;18.554;2023-09-12T03:35:36;15.4;;;9.6;;
23360;SDS011;11852;50.082;18.554;2023-09-12T03:36:43;14.9;;;10.2;;
23360;SDS011;11852;50.082;18.554;2023-09-12T03:37:50;14.7;;;10.5;;
23360;SDS011;11852;50.082;18.554;2023-09-12T03:38:56;16.9;;;10.2;;
23360;SDS011;11852;50.082;18.554;2023-09-12T03:40:01;14.5;;;9.7;;
23360;SDS011;11852;50.082;18.554;2023-09-12T03:41:09;15.0;;;10.4;;
23360;SDS011;11852;50.082;18.554;2023-09-12T03:42:14;15.6;;;10.6;;
23360;SDS011;11852;50.082;18.554;2023-09-12T03:43:20;15.4;;;9.9;;
23360;SDS011;11852;50.082;18.554;2023-09-12T03:44:29;15.7;;;10.4;;
23360;SDS011;11852;50.082;18.554;2023-09-12T03:45:35;14.5;;;10.4;;
23360;SDS011;11852;50.082;18.554;2023-09-12T03:46:41;15.4;;;10.4;;
23360;SDS011;11852;50.082;18.554;2023-09-12T03:47:47;14.8;;;9.9;;
23360;SDS011;11852;50.082;18.554;2023-09-12T03:48:56;18.8;;;10.9;;
23360;SDS011;11852;50.082;18.554;2023-09-12T03:49:59;14.5;;;9.7;;
23360;SDS011;11852;50.082;18.554;2023-09-12T03:51:07;15.0;;;10.7;;
23360;SDS011;11852;50.082;18.554;2023-09-12T03:52:12;15.1;;;9.7;;
23360;SDS011;11852;50.082;18.554;2023-09-12T03:53:18;16.2;;;11.1;;
23360;SDS011;11852;50.082;18.554;2023-09-12T03:54:23;22.4;;;11.7;;
23360;SDS011;11852;50.082;18.554;2023-09-12T03:55:31;15.7;;;10.5;;
23360;SDS011;11852;50.082;18.554;2023-09-12T03:56:38;18.0;;;10.6;;
23360;SDS011;11852;50.082;18.554;2023-09-12T03:57:43;17.0;;;10.4;;
23360;SDS011;11852;50.082;18.554;2023-09-12T03:58:49;17.7;;;10.7;;
23360;SDS011;11852;50.082;18.554;2023-09-12T03:59:55;16.4;;;10.2;;
23360;SDS011;11852;50.082;18.554;2023-09-12T04:01:00;18.9;;;10.7;;
23360;SDS011;11852;50.082;18.554;2023-09-12T04:02:06;18.5;;;10.6;;
23360;SDS011;11852;50.082;18.554;2023-09-12T04:03:11;19.9;;;10.5;;
23360;SDS011;11852;50.082;18.554;2023-09-12T04:04:17;17.6;;;10.2;;
23360;SDS011;11852;50.082;18.554;2023-09-12T04:05:24;13.5;;;9.7;;
23360;SDS011;11852;50.082;18.554;2023-09-12T04:06:33;13.8;;;9.0;;
23360;SDS011;11852;50.082;18.554;2023-09-12T04:07:39;16.9;;;9.2;;
23360;SDS011;11852;50.082;18.554;2023-09-12T04:08:46;15.1;;;8.3;;
23360;SDS011;11852;50.082;18.554;2023-09-12T04:09:52;13.2;;;9.2;;
23360;SDS011;11852;50.082;18.554;2023-09-12T04:11:58;13.2;;;9.2;;
23360;SDS011;11852;50.082;18.554;2023-09-12T04:14:01;13.2;;;9.2;;
23360;SDS011;11852;50.082;18.554;2023-09-12T04:15:46;13.2;;;9.2;;
23360;SDS011;11852;50.082;18.554;2023-09-12T04:16:51;16.7;;;9.7;;
23360;SDS011;11852;50.082;18.554;2023-09-12T04:17:57;17.9;;;10.0;;
23360;SDS011;11852;50.082;18.554;2023-09-12T04:19:03;16.4;;;9.4;;
23360;SDS011;11852;50.082;18.554;2023-09-12T04:20:08;18.0;;;9.7;;
23360;SDS011;11852;50.082;18.554;2023-09-12T04:21:15;13.0;;;9.1;;
23360;SDS011;11852;50.082;18.554;2023-09-12T04:22:22;15.5;;;9.2;;
23360;SDS011;11852;50.082;18.554;2023-09-12T04:23:29;16.7;;;9.3;;
23360;SDS011;11852;50.082;18.554;2023-09-12T04:24:38;11.9;;;9.1;;
23360;SDS011;11852;50.082;18.554;2023-09-12T04:25:48;14.0;;;9.1;;
23360;SDS011;11852;50.082;18.554;2023-09-12T04:26:54;15.9;;;8.8;;
23360;SDS011;11852;50.082;18.554;2023-09-12T04:27:59;13.2;;;9.0;;
23360;SDS011;11852;50.082;18.554;2023-09-12T04:29:05;13.8;;;9.0;;
23360;SDS011;11852;50.082;18.554;2023-09-12T04:30:12;13.3;;;9.3;;
23360;SDS011;11852;50.082;18.554;2023-09-12T04:31:17;17.4;;;9.3;;
23360;SDS011;11852;50.082;18.554;2023-09-12T04:32:24;12.3;;;9.4;;
23360;SDS011;11852;50.082;18.554;2023-09-12T04:33:30;18.7;;;9.8;;
23360;SDS011;11852;50.082;18.554;2023-09-12T04:34:47;14.0;;;9.8;;
23360;SDS011;11852;50.082;18.554;2023-09-12T04:35:56;17.5;;;9.2;;
23360;SDS011;11852;50.082;18.554;2023-09-12T04:36:59;15.4;;;9.5;;
23360;SDS011;11852;50.082;18.554;2023-09-12T04:38:05;16.4;;;9.3;;
23360;SDS011;11852;50.082;18.554;2023-09-12T04:39:12;13.8;;;9.6;;
23360;SDS011;11852;50.082;18.554;2023-09-12T04:40:19;13.6;;;9.6;;
23360;SDS011;11852;50.082;18.554;2023-09-12T04:41:29;14.3;;;8.4;;
23360;SDS011;11852;50.082;18.554;2023-09-12T04:42:35;18.1;;;9.7;;
23360;SDS011;11852;50.082;18.554;2023-09-12T04:43:41;15.7;;;8.8;;
23360;SDS011;11852;50.082;18.554;2023-09-12T04:44:48;15.0;;;8.9;;
23360;SDS011;11852;50.082;18.554;2023-09-12T04:45:55;15.7;;;8.9;;
23360;SDS011;11852;50.082;18.554;2023-09-12T04:47:00;15.3;;;9.2;;
23360;SDS011;11852;50.082;18.554;2023-09-12T04:48:09;15.3;;;9.1;;
23360;SDS011;11852;50.082;18.554;2023-09-12T04:49:14;16.2;;;9.8;;
23360;SDS011;11852;50.082;18.554;2023-09-12T04:50:20;17.6;;;9.2;;
23360;SDS011;11852;50.082;18.554;2023-09-12T04:51:30;11.7;;;9.4;;
23360;SDS011;11852;50.082;18.554;2023-09-12T04:52:37;15.6;;;9.6;;
23360;SDS011;11852;50.082;18.554;2023-09-12T04:53:43;16.0;;;9.5;;
23360;SDS011;11852;50.082;18.554;2023-09-12T04:54:50;16.3;;;10.4;;
23360;SDS011;11852;50.082;18.554;2023-09-12T04:55:56;16.6;;;9.3;;
23360;SDS011;11852;50.082;18.554;2023-09-12T04:57:02;15.4;;;10.2;;
23360;SDS011;11852;50.082;18.554;2023-09-12T04:58:09;16.3;;;10.2;;
23360;SDS011;11852;50.082;18.554;2023-09-12T04:59:16;16.7;;;9.6;;
23360;SDS011;11852;50.082;18.554;2023-09-12T05:00:24;18.6;;;10.2;;
23360;SDS011;11852;50.082;18.554;2023-09-12T05:01:30;15.3;;;9.8;;
23360;SDS011;11852;50.082;18.554;2023-09-12T05:02:36;16.6;;;10.3;;
23360;SDS011;11852;50.082;18.554;2023-09-12T05:03:41;15.2;;;10.6;;
23360;SDS011;11852;50.082;18.554;2023-09-12T05:04:46;15.1;;;10.0;;
23360;SDS011;11852;50.082;18.554;2023-09-12T05:05:53;15.1;;;9.9;;
23360;SDS011;11852;50.082;18.554;2023-09-12T05:07:01;18.7;;;9.3;;
23360;SDS011;11852;50.082;18.554;2023-09-12T05:08:12;16.6;;;10.1;;
23360;SDS011;11852;50.082;18.554;2023-09-12T05:09:17;17.7;;;10.1;;
23360;SDS011;11852;50.082;18.554;2023-09-12T05:10:29;16.5;;;9.8;;
23360;SDS011;11852;50.082;18.554;2023-09-12T05:11:34;18.7;;;10.2;;
23360;SDS011;11852;50.082;18.554;2023-09-12T05:12:41;18.1;;;9.5;;
23360;SDS011;11852;50.082;18.554;2023-09-12T05:13:51;19.1;;;9.9;;
23360;SDS011;11852;50.082;18.554;2023-09-12T05:15:00;18.4;;;9.6;;
23360;SDS011;11852;50.082;18.554;2023-09-12T05:16:08;21.2;;;9.4;;
23360;SDS011;11852;50.082;18.554;2023-09-12T05:17:14;18.2;;;9.6;;
23360;SDS011;11852;50.082;18.554;2023-09-12T05:18:19;26.7;;;10.1;;
23360;SDS011;11852;50.082;18.554;2023-09-12T05:19:30;18.7;;;9.0;;
23360;SDS011;11852;50.082;18.554;2023-09-12T05:20:35;22.9;;;10.3;;
23360;SDS011;11852;50.082;18.554;2023-09-12T05:21:47;23.3;;;10.1;;
23360;SDS011;11852;50.082;18.554;2023-09-12T05:22:53;23.8;;;10.9;;
23360;SDS011;11852;50.082;18.554;2023-09-12T05:24:05;27.8;;;10.7;;
23360;SDS011;11852;50.082;18.554;2023-09-12T05:25:14;23.9;;;11.2;;
23360;SDS011;11852;50.082;18.554;2023-09-12T05:26:19;25.1;;;11.1;;
23360;SDS011;11852;50.082;18.554;2023-09-12T05:27:25;20.0;;;10.4;;
23360;SDS011;11852;50.082;18.554;2023-09-12T05:28:36;24.1;;;10.4;;
23360;SDS011;11852;50.082;18.554;2023-09-12T05:29:47;22.8;;;11.0;;
23360;SDS011;11852;50.082;18.554;2023-09-12T05:30:52;26.6;;;13.2;;
23360;SDS011;11852;50.082;18.554;2023-09-12T05:32:03;30.0;;;12.6;;
23360;SDS011;11852;50.082;18.554;2023-09-12T05:33:08;29.1;;;13.3;;
23360;SDS011;11852;50.082;18.554;2023-09-12T05:34:13;31.0;;;14.3;;
23360;SDS011;11852;50.082;18.554;2023-09-12T05:35:18;30.7;;;15.0;;
23360;SDS011;11852;50.082;18.554;2023-09-12T05:36:25;31.9;;;14.4;;
23360;SDS011;11852;50.082;18.554;2023-09-12T05:37:30;29.9;;;14.7;;
23360;SDS011;11852;50.082;18.554;2023-09-12T05:38:35;29.1;;;14.3;;
23360;SDS011;11852;50.082;18.554;2023-09-12T05:39:39;35.0;;;15.9;;
23360;SDS011;11852;50.082;18.554;2023-09-12T05:40:48;30.1;;;15.0;;
23360;SDS011;11852;50.082;18.554;2023-09-12T05:41:53;27.7;;;14.5;;
23360;SDS011;11852;50.082;18.554;2023-09-12T05:42:58;31.6;;;14.8;;
23360;SDS011;11852;50.082;18.554;2023-09-12T05:44:02;30.9;;;13.9;;
23360;SDS011;11852;50.082;18.554;2023-09-12T05:45:07;29.0;;;13.9;;
23360;SDS011;11852;50.082;18.554;2023-09-12T05:46:12;24.8;;;12.6;;
23360;SDS011;11852;50.082;18.554;2023-09-12T05:47:20;24.4;;;11.8;;
23360;SDS011;11852;50.082;18.554;2023-09-12T05:48:24;21.3;;;11.1;;
23360;SDS011;11852;50.082;18.554;2023-09-12T05:49:31;22.7;;;11.1;;
23360;SDS011;11852;50.082;18.554;2023-09-12T05:50:37;22.0;;;11.4;;
23360;SDS011;11852;50.082;18.554;2023-09-12T05:51:45;21.8;;;11.9;;
23360;SDS011;11852;50.082;18.554;2023-09-12T05:52:51;22.2;;;12.2;;
23360;SDS011;11852;50.082;18.554;2023-09-12T05:53:57;19.9;;;11.0;;
23360;SDS011;11852;50.082;18.554;2023-09-12T05:55:03;22.1;;;11.5;;
23360;SDS011;11852;50.082;18.554;2023-09-12T05:56:08;18.8;;;10.3;;
23360;SDS011;11852;50.082;18.554;2023-09-12T05:57:15;21.9;;;9.7;;
23360;SDS011;11852;50.082;18.554;2023-09-12T05:58:22;23.5;;;10.1;;
23360;SDS011;11852;50.082;18.554;2023-09-12T05:59:28;22.1;;;9.9;;
23360;SDS011;11852;50.082;18.554;2023-09-12T06:00:34;23.0;;;8.5;;
23360;SDS011;11852;50.082;18.554;2023-09-12T06:01:39;22.5;;;9.2;;
23360;SDS011;11852;50.082;18.554;2023-09-12T06:02:47;19.9;;;8.6;;
23360;SDS011;11852;50.082;18.554;2023-09-12T06:03:54;16.2;;;7.7;;
23360;SDS011;11852;50.082;18.554;2023-09-12T06:05:00;16.3;;;8.4;;
23360;SDS011;11852;50.082;18.554;2023-09-12T06:06:07;18.3;;;8.6;;
23360;SDS011;11852;50.082;18.554;2023-09-12T06:07:19;24.6;;;8.0;;
23360;SDS011;11852;50.082;18.554;2023-09-12T06:08:23;25.2;;;7.8;;
23360;SDS011;11852;50.082;18.554;2023-09-12T06:09:28;24.8;;;7.9;;
23360;SDS011;11852;50.082;18.554;2023-09-12T06:10:33;21.6;;;8.3;;
23360;SDS011;11852;50.082;18.554;2023-09-12T06:11:39;25.6;;;8.1;;
23360;SDS011;11852;50.082;18.554;2023-09-12T06:12:44;21.2;;;8.2;;
23360;SDS011;11852;50.082;18.554;2023-09-12T06:13:49;15.7;;;7.4;;
23360;SDS011;11852;50.082;18.554;2023-09-12T06:14:54;20.4;;;7.3;;
23360;SDS011;11852;50.082;18.554;2023-09-12T06:16:02;17.6;;;7.9;;
23360;SDS011;11852;50.082;18.554;2023-09-12T06:17:09;16.6;;;7.4;;
23360;SDS011;11852;50.082;18.554;2023-09-12T06:18:14;19.3;;;7.7;;
23360;SDS011;11852;50.082;18.554;2023-09-12T06:19:19;23.2;;;8.5;;
23360;SDS011;11852;50.082;18.554;2023-09-12T06:20:24;24.7;;;8.1;;
23360;SDS011;11852;50.082;18.554;2023-09-12T06:21:29;19.4;;;7.9;;
23360;SDS011;11852;50.082;18.554;2023-09-12T06:22:34;18.7;;;7.5;;
23360;SDS011;11852;50.082;18.554;2023-09-12T06:23:43;22.6;;;7.7;;
23360;SDS011;11852;50.082;18.554;2023-09-12T06:24:53;24.6;;;7.6;;
23360;SDS011;11852;50.082;18.554;2023-09-12T06:25:58;24.3;;;7.0;;
23360;SDS011;11852;50.082;18.554;2023-09-12T06:27:02;15.6;;;6.5;;
23360;SDS011;11852;50.082;18.554;2023-09-12T06:28:09;17.7;;;7.1;;
23360;SDS011;11852;50.082;18.554;2023-09-12T06:29:21;16.6;;;7.0;;
23360;SDS011;11852;50.082;18.554;2023-09-12T06:30:26;15.6;;;6.9;;
23360;SDS011;11852;50.082;18.554;2023-09-12T06:31:37;16.2;;;7.2;;
23360;SDS011;11852;50.082;18.554;2023-09-12T06:32:42;15.3;;;7.6;;
23360;SDS011;11852;50.082;18.554;2023-09-12T06:33:54;17.0;;;7.8;;
23360;SDS011;11852;50.082;18.554;2023-09-12T06:34:59;14.1;;;7.7;;
23360;SDS011;11852;50.082;18.554;2023-09-12T06:36:04;17.9;;;7.7;;
23360;SDS011;11852;50.082;18.554;2023-09-12T06:37:10;15.0;;;7.5;;
23360;SDS011;11852;50.082;18.554;2023-09-12T06:38:16;11.9;;;7.2;;
23360;SDS011;11852;50.082;18.554;2023-09-12T06:39:22;13.2;;;7.7;;
23360;SDS011;11852;50.082;18.554;2023-09-12T06:40:27;14.1;;;7.6;;
23360;SDS011;11852;50.082;18.554;2023-09-12T06:41:34;13.8;;;8.1;;
23360;SDS011;11852;50.082;18.554;2023-09-12T06:42:41;16.0;;;8.5;;
23360;SDS011;11852;50.082;18.554;2023-09-12T06:43:47;17.9;;;9.2;;
23360;SDS011;11852;50.082;18.554;2023-09-12T06:44:54;14.3;;;8.8;;
23360;SDS011;11852;50.082;18.554;2023-09-12T06:46:04;15.6;;;9.0;;